Time;durP1;ratioP1;P1;durP2;ratioP2;P2;SDS_P1;SDS_P2;PMS_P1;PMS_P2;Temp;Humidity;BMP_temperature;BMP_pressure;BME280_temperature;BME280_humidity;BME280_pressure;Samples;Min_cycle;Max_cycle;Signal;HPM_P1;HPM_P2
2022/04/26 03:36:43;;;;;;;19.73;10.85;;;8.70;99.90;;;;;;5142862;27;20070;-65
2022/04/26 03:39:09;;;;;;;16.98;10.50;;;8.70;99.90;;;;;;5142501;27;20035;-65
2022/04/26 03:41:35;;;;;;;23.02;10.95;;;8.80;99.90;;;;;;5145005;27;20051;-65
2022/04/26 03:44:01;;;;;;;17.20;10.30;;;8.80;99.90;;;;;;5142732;27;20039;-65
2022/04/26 03:46:26;;;;;;;14.70;10.68;;;8.70;99.90;;;;;;5142444;27;20047;-65
2022/04/26 03:48:52;;;;;;;12.98;9.98;;;8.70;99.90;;;;;;5144687;27;20031;-65
2022/04/26 03:51:18;;;;;;;13.05;9.00;;;8.60;99.90;;;;;;5144752;27;20129;-65
2022/04/26 03:53:46;;;;;;;14.65;9.80;;;8.70;99.90;;;;;;5142122;27;20107;-65
2022/04/26 03:56:12;;;;;;;21.35;9.85;;;8.70;99.90;;;;;;5142455;27;20134;-65
2022/04/26 03:58:37;;;;;;;14.98;9.38;;;8.70;99.90;;;;;;5144516;27;20510;-65
2022/04/26 04:01:04;;;;;;;18.25;10.93;;;8.60;99.90;;;;;;5140856;27;20043;-65
2022/04/26 04:03:30;;;;;;;15.32;9.60;;;8.70;99.90;;;;;;5145565;28;20050;-65
2022/04/26 04:05:56;;;;;;;17.10;9.45;;;8.70;99.90;;;;;;5144525;27;20039;-65
2022/04/26 04:08:22;;;;;;;17.30;10.10;;;8.80;99.90;;;;;;5138027;28;20062;-65
2022/04/26 04:10:47;;;;;;;14.50;9.20;;;8.70;99.90;;;;;;5145845;28;20043;-65
2022/04/26 04:13:13;;;;;;;19.35;9.55;;;8.70;99.90;;;;;;5140676;28;20047;-65
2022/04/26 04:15:39;;;;;;;18.75;8.98;;;8.70;99.90;;;;;;5141245;28;20093;-65
2022/04/26 04:19:17;;;;;;;17.00;9.23;;;8.70;99.90;;;;;;5144900;28;20098;-65
2022/04/26 04:20:54;;;;;;;15.27;8.68;;;8.70;99.90;;;;;;5140731;28;20051;-65
2022/04/26 04:23:20;;;;;;;14.90;8.55;;;8.70;99.90;;;;;;5141903;28;20050;-65
2022/04/26 04:25:46;;;;;;;17.00;8.90;;;8.70;99.90;;;;;;5145698;28;20050;-65
2022/04/26 04:28:12;;;;;;;13.77;8.40;;;8.70;99.90;;;;;;5144384;28;20127;-65
2022/04/26 04:30:38;;;;;;;12.88;8.60;;;8.70;99.90;;;;;;5127149;28;20054;-65
2022/04/26 04:33:03;;;;;;;17.52;8.70;;;8.70;99.90;;;;;;5144403;28;20081;-65
2022/04/26 04:35:29;;;;;;;18.10;8.38;;;8.60;99.90;;;;;;5144002;28;20444;-65
2022/04/26 04:37:55;;;;;;;14.60;8.20;;;8.70;99.90;;;;;;5136366;28;20043;-65
2022/04/26 04:40:20;;;;;;;16.05;8.90;;;8.60;99.90;;;;;;5138245;28;20039;-65
2022/04/26 04:42:46;;;;;;;17.65;9.38;;;8.60;99.90;;;;;;5142505;27;20046;-65
2022/04/26 04:45:12;;;;;;;10.88;8.05;;;8.60;99.90;;;;;;5144881;28;20051;-65
2022/04/26 04:47:38;;;;;;;13.32;7.90;;;8.60;99.90;;;;;;5137507;28;20043;-65
2022/04/26 04:50:04;;;;;;;12.35;7.72;;;8.60;99.90;;;;;;5135496;28;20039;-65
2022/04/26 04:52:30;;;;;;;13.70;8.27;;;8.70;99.90;;;;;;5138749;28;20113;-65
2022/04/26 04:54:55;;;;;;;15.85;8.43;;;8.60;99.90;;;;;;5144575;28;20119;-65
2022/04/26 04:57:21;;;;;;;18.13;8.57;;;8.70;99.90;;;;;;5144223;28;20046;-65
2022/04/26 04:59:47;;;;;;;14.25;8.50;;;8.70;99.90;;;;;;5141033;28;20577;-65
2022/04/26 05:02:13;;;;;;;16.17;7.90;;;8.70;99.90;;;;;;5138631;28;20047;-65
2022/04/26 05:04:39;;;;;;;15.13;7.90;;;8.70;99.90;;;;;;5137514;28;20040;-65
2022/04/26 05:07:07;;;;;;;16.65;8.60;;;8.70;99.90;;;;;;5145050;28;20039;-65
2022/04/26 05:09:33;;;;;;;18.10;9.80;;;8.70;99.90;;;;;;5140628;28;20058;-65
2022/04/26 05:11:58;;;;;;;14.82;8.70;;;8.60;99.90;;;;;;5125941;28;20048;-65
2022/04/26 05:14:24;;;;;;;12.38;7.82;;;8.80;99.90;;;;;;5145487;28;20043;-65
2022/04/26 05:16:50;;;;;;;16.67;8.40;;;8.80;99.90;;;;;;5143923;27;20039;-65
2022/04/26 05:19:16;;;;;;;13.07;7.68;;;8.70;99.90;;;;;;5143904;27;20039;-65
2022/04/26 05:21:42;;;;;;;11.60;7.63;;;8.70;99.90;;;;;;5125331;27;20550;-65
2022/04/26 05:26:52;;;;;;;19.20;8.73;;;9.00;99.90;;;;;;5147323;27;20058;-65
2022/04/26 05:29:17;;;;;;;13.00;7.68;;;8.90;99.90;;;;;;5147061;27;20043;-65
2022/04/26 05:31:43;;;;;;;16.75;8.50;;;8.90;99.90;;;;;;5123421;27;20047;-65
2022/04/26 05:34:09;;;;;;;13.60;7.75;;;9.10;99.90;;;;;;5147447;27;20080;-65
2022/04/26 05:36:34;;;;;;;15.52;6.78;;;9.00;99.90;;;;;;5138478;27;20047;-65
2022/04/26 05:39:01;;;;;;;9.77;7.28;;;9.00;99.90;;;;;;5142480;27;20061;-65
2022/04/26 05:41:27;;;;;;;17.40;7.68;;;9.10;99.90;;;;;;5146000;27;20055;-65
2022/04/26 05:43:53;;;;;;;14.20;7.95;;;9.10;99.90;;;;;;5146127;27;20046;-65
2022/04/26 05:46:18;;;;;;;15.38;7.20;;;9.20;99.90;;;;;;5145931;27;20478;-65
2022/04/26 05:48:44;;;;;;;13.98;7.45;;;9.10;99.90;;;;;;5141929;27;20044;-65
2022/04/26 05:51:10;;;;;;;16.92;8.25;;;9.20;99.90;;;;;;5146677;27;20043;-65
2022/04/26 05:53:36;;;;;;;19.75;7.97;;;9.10;99.90;;;;;;5142279;27;20068;-65
2022/04/26 05:56:04;;;;;;;12.35;7.15;;;9.20;99.90;;;;;;5147637;27;20042;-65
2022/04/26 05:58:29;;;;;;;11.63;7.00;;;9.10;99.90;;;;;;5146607;27;20035;-65
2022/04/26 06:00:55;;;;;;;13.45;6.93;;;9.20;99.90;;;;;;5147944;27;20096;-65
2022/04/26 06:03:21;;;;;;;13.70;6.80;;;9.20;99.90;;;;;;5146694;27;20039;-65
2022/04/26 06:05:47;;;;;;;11.15;7.00;;;9.20;99.90;;;;;;5144514;27;20074;-65
2022/04/26 06:08:12;;;;;;;13.38;7.20;;;9.20;99.90;;;;;;5145425;27;20222;-65
2022/04/26 06:10:42;;;;;;;12.68;6.53;;;9.20;99.90;;;;;;5145348;27;20071;-65
2022/04/26 06:13:10;;;;;;;11.82;6.63;;;9.30;99.90;;;;;;5102668;27;20043;-65
2022/04/26 06:15:36;;;;;;;15.75;6.85;;;9.30;99.90;;;;;;5139724;27;20047;-66
2022/04/26 06:18:02;;;;;;;12.57;6.32;;;9.40;99.90;;;;;;5142074;27;20057;-65
2022/04/26 06:20:29;;;;;;;15.80;6.47;;;9.40;99.90;;;;;;5138235;27;20047;-66
2022/04/26 06:22:55;;;;;;;18.95;7.25;;;9.40;99.90;;;;;;5134926;27;20042;-65
2022/04/26 06:25:20;;;;;;;12.63;6.57;;;9.50;99.90;;;;;;5142356;27;20126;-65
2022/04/26 06:27:47;;;;;;;18.23;7.18;;;9.70;99.90;;;;;;5143213;27;20046;-65
2022/04/26 06:30:14;;;;;;;13.18;7.20;;;9.50;99.90;;;;;;5145916;27;20051;-64
2022/04/26 06:32:42;;;;;;;16.63;7.43;;;9.70;99.90;;;;;;5140156;27;20063;-64
2022/04/26 06:35:08;;;;;;;11.32;6.13;;;9.70;99.90;;;;;;5134714;27;20055;-64
2022/04/26 06:37:33;;;;;;;11.85;6.43;;;9.70;99.90;;;;;;5137841;27;20054;-65
2022/04/26 06:39:59;;;;;;;10.38;6.38;;;9.60;99.90;;;;;;5134830;27;20039;-65
2022/04/26 06:42:25;;;;;;;11.07;6.30;;;9.80;99.90;;;;;;5132730;27;20071;-65
2022/04/26 06:44:50;;;;;;;13.55;6.93;;;9.80;99.90;;;;;;5140627;27;20378;-65
2022/04/26 06:47:16;;;;;;;12.23;6.47;;;9.90;99.90;;;;;;5137423;27;20436;-64
2022/04/26 06:49:42;;;;;;;11.55;6.25;;;10.00;99.90;;;;;;5136352;27;20270;-64
2022/04/26 06:52:07;;;;;;;12.52;7.22;;;10.00;99.90;;;;;;5135264;27;20051;-64
2022/04/26 06:54:33;;;;;;;12.30;6.50;;;10.20;99.90;;;;;;5139974;27;20050;-64
2022/04/26 06:56:59;;;;;;;14.15;6.38;;;10.10;99.90;;;;;;5137802;27;20047;-65
2022/04/26 06:59:25;;;;;;;14.25;5.88;;;10.20;99.90;;;;;;5138490;27;20047;-65
2022/04/26 07:01:54;;;;;;;10.27;6.55;;;10.20;99.90;;;;;;5130618;27;20056;-65
2022/04/26 07:04:20;;;;;;;15.82;6.35;;;10.30;99.90;;;;;;5128561;27;20043;-64
2022/04/26 07:06:47;;;;;;;10.82;5.80;;;10.30;99.90;;;;;;5130114;27;20050;-64
2022/04/26 07:09:13;;;;;;;9.38;5.75;;;10.30;99.90;;;;;;5131014;27;20519;-64
2022/04/26 07:11:38;;;;;;;9.68;5.18;;;10.30;99.90;;;;;;5127776;27;20495;-65
2022/04/26 07:14:05;;;;;;;13.05;5.40;;;10.20;99.90;;;;;;5132163;27;20057;-65
2022/04/26 07:16:31;;;;;;;13.05;5.53;;;10.20;99.90;;;;;;5119617;27;20042;-69
2022/04/26 07:18:56;;;;;;;13.10;5.32;;;10.40;99.90;;;;;;5146649;27;20046;-63
2022/04/26 07:21:22;;;;;;;11.60;5.32;;;10.30;99.90;;;;;;5143503;27;20054;-64
2022/04/26 07:23:48;;;;;;;9.98;5.45;;;10.40;99.90;;;;;;5141942;27;20103;-64
2022/04/26 07:26:14;;;;;;;10.20;5.15;;;10.30;99.90;;;;;;5144367;27;20039;-63
2022/04/26 07:28:39;;;;;;;8.68;5.35;;;10.40;99.90;;;;;;5123382;27;20391;-63
2022/04/26 07:31:05;;;;;;;10.90;5.47;;;10.40;99.90;;;;;;5159292;27;20043;-63
2022/04/26 07:36:16;;;;;;;9.15;4.80;;;10.40;99.90;;;;;;5164157;27;20057;-63
2022/04/26 07:38:41;;;;;;;13.45;5.07;;;10.30;99.90;;;;;;5161218;27;20039;-64
2022/04/26 07:41:09;;;;;;;11.63;5.78;;;10.60;99.90;;;;;;5145073;27;20070;-63
2022/04/26 07:43:35;;;;;;;15.13;5.82;;;10.60;99.90;;;;;;5158912;27;20054;-64
2022/04/26 07:46:00;;;;;;;9.25;5.10;;;10.60;99.90;;;;;;5092221;27;20062;-65
2022/04/26 07:48:27;;;;;;;9.82;4.78;;;10.60;99.90;;;;;;5123433;27;20050;-64
2022/04/26 07:50:53;;;;;;;8.60;5.38;;;10.60;99.90;;;;;;5120896;27;20304;-63
2022/04/26 07:53:18;;;;;;;15.30;6.00;;;10.60;99.90;;;;;;5125115;27;20058;-65
2022/04/26 07:55:44;;;;;;;8.75;5.30;;;10.60;99.90;;;;;;5135498;27;20047;-64
2022/04/26 07:58:10;;;;;;;6.63;4.55;;;10.60;99.90;;;;;;5152258;27;20043;-64
2022/04/26 08:00:36;;;;;;;11.05;5.13;;;10.60;99.90;;;;;;5142688;27;20151;-65
2022/04/26 08:03:05;;;;;;;10.18;5.07;;;10.60;99.90;;;;;;5128413;27;20151;-64
2022/04/26 08:05:30;;;;;;;10.63;5.07;;;10.70;99.90;;;;;;5135488;27;20039;-63
2022/04/26 08:07:56;;;;;;;11.07;5.07;;;10.90;99.90;;;;;;5147832;27;20039;-63
2022/04/26 08:10:22;;;;;;;8.73;5.63;;;11.00;99.90;;;;;;5109118;28;20068;-65
2022/04/26 08:12:48;;;;;;;11.50;4.63;;;11.00;99.90;;;;;;5133266;27;20055;-65
2022/04/26 08:15:14;;;;;;;13.50;5.18;;;11.20;99.90;;;;;;5156881;27;20058;-65
2022/04/26 08:17:41;;;;;;;9.52;5.00;;;11.30;99.90;;;;;;5127672;27;20049;-66
2022/04/26 08:20:10;;;;;;;9.45;5.00;;;11.40;99.90;;;;;;5153921;27;20046;-67
2022/04/26 08:22:36;;;;;;;8.00;4.47;;;11.50;99.90;;;;;;5110338;27;20392;-66
2022/04/26 08:27:46;;;;;;;9.85;4.95;;;11.70;99.90;;;;;;5117344;27;20047;-66
2022/04/26 08:30:12;;;;;;;9.15;4.70;;;11.70;99.90;;;;;;5133360;27;20313;-66
2022/04/26 08:32:47;;;;;;;8.55;4.32;;;11.70;99.90;;;;;;5107118;28;20276;-64
2022/04/26 08:35:17;;;;;;;8.55;4.32;;;11.60;99.90;;;;;;5130084;27;20039;-65
2022/04/26 08:37:43;;;;;;;10.32;5.07;;;11.50;99.90;;;;;;5126278;27;20046;-64
2022/04/26 08:40:09;;;;;;;10.13;4.60;;;11.50;99.90;;;;;;5138899;27;20042;-64
2022/04/26 08:42:39;;;;;;;7.53;4.50;;;11.50;99.90;;;;;;5108660;28;20039;-64
2022/04/26 08:45:07;;;;;;;8.25;4.40;;;11.40;99.90;;;;;;5131717;28;20039;-64
2022/04/26 08:53:04;;;;;;;6.25;3.80;;;11.50;99.90;;;;;;5113198;27;20052;-65
2022/04/26 08:55:32;;;;;;;10.43;4.68;;;11.70;99.90;;;;;;5137255;27;20043;-64
2022/04/26 08:57:59;;;;;;;7.57;4.55;;;11.80;99.90;;;;;;5131049;27;20050;-66
2022/04/26 09:00:25;;;;;;;7.28;3.80;;;11.80;99.90;;;;;;5113001;27;20364;-66
2022/04/26 09:03:02;;;;;;;9.95;4.13;;;11.70;99.90;;;;;;5131353;27;20181;-66
2022/04/26 09:05:28;;;;;;;9.77;4.50;;;11.80;99.90;;;;;;5142143;27;20288;-66
2022/04/26 09:07:54;;;;;;;6.55;4.13;;;11.90;99.90;;;;;;5128874;27;20059;-66
2022/04/26 09:10:21;;;;;;;8.70;4.88;;;12.00;99.90;;;;;;5131856;27;20047;-66
2022/04/26 09:13:14;;;;;;;7.65;4.88;;;12.20;99.90;;;;;;5115531;27;20051;-66
2022/04/26 09:15:47;;;;;;;6.53;4.00;;;12.30;99.90;;;;;;5131510;27;20051;-66
2022/04/26 09:18:15;;;;;;;6.80;3.83;;;12.40;99.90;;;;;;5089828;27;20048;-66
2022/04/26 09:20:43;;;;;;;7.53;4.40;;;12.30;99.90;;;;;;5121472;27;20045;-66
2022/04/26 09:23:26;;;;;;;10.68;4.22;;;12.40;99.90;;;;;;5107370;27;20053;-66
2022/04/26 09:26:00;;;;;;;10.35;4.63;;;12.50;99.90;;;;;;5127669;27;20096;-67
2022/04/26 09:28:29;;;;;;;6.50;4.03;;;12.30;99.90;;;;;;5139454;27;20149;-66
2022/04/26 09:30:55;;;;;;;9.15;4.53;;;12.20;99.90;;;;;;5119685;27;20054;-66
2022/04/26 09:33:40;;;;;;;10.82;4.78;;;12.20;99.90;;;;;;5099388;28;20055;-67
2022/04/26 09:36:11;;;;;;;7.00;4.50;;;12.40;99.90;;;;;;5119237;27;20119;-66
2022/04/26 09:38:39;;;;;;;8.25;5.28;;;12.40;99.90;;;;;;5112315;27;20051;-67
2022/04/26 09:41:09;;;;;;;7.32;5.28;;;12.50;99.90;;;;;;5121788;27;20070;-67
2022/04/26 09:43:36;;;;;;;7.38;4.85;;;12.50;99.90;;;;;;5125572;27;20051;-66
2022/04/26 09:46:04;;;;;;;7.68;4.93;;;12.60;99.90;;;;;;5086695;27;20084;-67
2022/04/26 09:48:36;;;;;;;6.80;4.53;;;12.60;99.90;;;;;;5102267;28;20048;-67
2022/04/26 09:51:07;;;;;;;9.23;4.80;;;12.70;99.90;;;;;;5112828;27;20126;-67
2022/04/26 09:53:33;;;;;;;9.00;5.28;;;13.00;99.90;;;;;;5105678;27;20566;-67
2022/04/26 09:56:01;;;;;;;10.60;5.38;;;13.10;99.90;;;;;;5134872;27;20050;-67
2022/04/26 09:58:28;;;;;;;8.02;4.53;;;13.30;99.90;;;;;;5115157;27;20389;-67
2022/04/26 10:00:56;;;;;;;8.77;5.50;;;13.50;99.90;;;;;;5116543;27;20096;-67
2022/04/26 10:03:36;;;;;;;8.38;5.10;;;13.50;99.90;;;;;;5104183;27;20073;-67
2022/04/26 10:06:07;;;;;;;8.75;4.40;;;13.60;99.90;;;;;;5131625;27;20123;-67
2022/04/26 10:08:35;;;;;;;7.97;4.57;;;13.60;99.90;;;;;;5126457;27;20162;-67
2022/04/26 10:11:02;;;;;;;10.82;4.47;;;13.60;99.90;;;;;;5138787;27;20050;-67
2022/04/26 10:13:31;;;;;;;8.02;4.97;;;13.60;99.90;;;;;;5117359;27;20047;-67
2022/04/26 10:16:04;;;;;;;10.05;4.75;;;13.50;99.90;;;;;;5134584;27;20047;-67
2022/04/26 10:18:34;;;;;;;8.15;4.60;;;13.40;99.90;;;;;;5117311;27;20051;-65
2022/04/26 10:21:01;;;;;;;6.95;5.30;;;13.30;99.90;;;;;;5127031;27;20051;-65
2022/04/26 10:23:27;;;;;;;5.95;4.70;;;13.30;99.90;;;;;;5123178;27;20042;-66
2022/04/26 10:26:21;;;;;;;6.75;4.72;;;13.30;99.90;;;;;;5136637;27;20051;-66
2022/04/26 10:28:51;;;;;;;6.32;4.28;;;13.50;99.90;;;;;;5126854;27;20061;-65
2022/04/26 10:31:17;;;;;;;9.32;4.88;;;13.60;99.90;;;;;;5126762;27;20566;-66
2022/04/26 10:33:47;;;;;;;8.07;4.30;;;13.70;99.90;;;;;;5118393;27;21157;-63
2022/04/26 10:36:30;;;;;;;11.35;5.13;;;13.80;99.90;;;;;;5126204;27;20217;-63
2022/04/26 10:39:08;;;;;;;6.43;4.72;;;14.00;99.90;;;;;;5100949;27;20524;-63
2022/04/26 10:41:34;;;;;;;11.75;4.72;;;14.20;99.90;;;;;;5130039;27;20055;-63
2022/04/26 10:44:21;;;;;;;8.88;5.03;;;14.40;99.90;;;;;;5128418;27;20081;-66
2022/04/26 10:46:51;;;;;;;5.68;4.45;;;14.40;99.90;;;;;;5129081;27;20047;-66
2022/04/26 10:49:25;;;;;;;10.32;5.28;;;14.30;99.90;;;;;;5121834;27;20042;-67
2022/04/26 10:51:57;;;;;;;8.30;4.10;;;14.40;99.90;;;;;;5133101;27;20046;-66
2022/04/26 10:54:45;;;;;;;6.43;4.53;;;14.30;99.90;;;;;;5121744;27;20165;-66
2022/04/26 10:57:15;;;;;;;10.23;5.15;;;14.20;99.90;;;;;;5134494;27;20051;-66
2022/04/26 10:59:41;;;;;;;8.48;4.93;;;14.30;99.90;;;;;;5124579;27;20055;-66
2022/04/26 11:02:11;;;;;;;9.95;4.55;;;14.40;99.90;;;;;;5132699;27;20047;-66
2022/04/26 11:04:37;;;;;;;7.80;5.18;;;14.40;99.90;;;;;;5080101;27;20621;-66
2022/04/26 11:07:16;;;;;;;7.80;4.82;;;14.60;99.90;;;;;;5135169;27;20050;-66
2022/04/26 11:09:49;;;;;;;7.43;4.63;;;14.70;99.90;;;;;;5123160;27;20047;-66
2022/04/26 11:12:17;;;;;;;7.32;4.85;;;14.80;99.90;;;;;;5137204;27;20072;-66
2022/04/26 11:14:43;;;;;;;5.50;4.35;;;14.90;99.90;;;;;;5107022;28;20079;-66
2022/04/26 11:17:09;;;;;;;6.25;5.07;;;15.00;99.90;;;;;;5099310;27;20341;-66
2022/04/26 11:19:37;;;;;;;8.73;4.75;;;15.00;99.90;;;;;;5128063;27;20043;-65
2022/04/26 11:22:12;;;;;;;6.15;4.45;;;15.00;99.90;;;;;;5132866;27;20335;-66
2022/04/26 11:30:09;;;;;;;7.57;4.53;;;14.60;99.90;;;;;;5106832;27;20047;-65
2022/04/26 11:32:43;;;;;;;8.63;5.05;;;14.80;99.90;;;;;;5119126;27;20039;-66
2022/04/26 11:35:16;;;;;;;6.88;4.50;;;14.70;99.90;;;;;;5107835;28;20058;-66
2022/04/26 11:37:53;;;;;;;7.15;4.53;;;14.60;99.90;;;;;;5121071;27;20120;-66
2022/04/26 11:40:24;;;;;;;6.13;4.57;;;14.70;99.90;;;;;;5121625;27;20191;-66
2022/04/26 11:42:50;;;;;;;7.18;5.28;;;14.70;99.90;;;;;;5127798;27;20043;-66
2022/04/26 11:45:17;;;;;;;6.95;4.82;;;14.80;99.90;;;;;;5135654;27;20610;-66
2022/04/26 11:47:48;;;;;;;6.75;4.63;;;15.10;99.90;;;;;;5116389;27;20597;-66
2022/04/26 11:50:23;;;;;;;5.72;4.70;;;15.10;99.90;;;;;;5135567;27;20384;-66
2022/04/26 11:52:50;;;;;;;5.93;4.50;;;15.10;99.90;;;;;;5124163;27;20069;-66
2022/04/26 11:55:30;;;;;;;6.65;4.53;;;15.20;99.90;;;;;;5120864;27;20279;-66
2022/04/26 11:58:06;;;;;;;7.30;5.05;;;15.30;99.90;;;;;;5125699;27;20173;-66
2022/04/26 12:00:33;;;;;;;5.82;4.57;;;15.20;99.90;;;;;;5122368;27;20051;-66
2022/04/26 12:02:59;;;;;;;6.20;4.82;;;15.10;99.90;;;;;;5111483;27;20047;-66
2022/04/26 12:05:25;;;;;;;5.78;4.45;;;15.10;99.90;;;;;;5127545;27;20444;-66
2022/04/26 12:07:52;;;;;;;7.38;4.65;;;15.40;99.90;;;;;;5127130;28;20058;-66
2022/04/26 12:10:29;;;;;;;7.50;4.55;;;15.40;99.90;;;;;;5135297;28;20047;-66
2022/04/26 12:13:05;;;;;;;6.90;4.35;;;15.50;99.90;;;;;;5124412;28;20043;-66
2022/04/26 12:15:33;;;;;;;7.38;4.45;;;15.50;99.90;;;;;;5108598;28;20066;-66
2022/04/26 12:18:07;;;;;;;6.90;4.50;;;15.40;99.90;;;;;;5113636;28;20055;-66
2022/04/26 12:20:36;;;;;;;4.95;4.10;;;15.30;99.90;;;;;;5110323;28;20336;-66
2022/04/26 12:23:05;;;;;;;6.70;4.43;;;15.30;99.90;;;;;;5124733;28;20063;-66
2022/04/26 12:25:35;;;;;;;9.43;5.35;;;15.30;99.90;;;;;;5115518;28;20508;-66
2022/04/26 12:28:02;;;;;;;;;;;15.40;99.90;;;;;;5109910;27;20047;-66
2022/04/26 12:30:31;;;;;;;6.97;4.50;;;15.60;99.90;;;;;;5134980;27;20022;-66
2022/04/26 12:32:57;;;;;;;8.55;4.72;;;15.70;99.90;;;;;;5111872;28;20077;-67
2022/04/26 12:35:23;;;;;;;6.78;4.35;;;15.70;99.90;;;;;;5130791;27;20051;-66
2022/04/26 12:38:07;;;;;;;7.53;4.40;;;15.70;99.90;;;;;;5126782;27;20039;-66
2022/04/26 12:40:33;;;;;;;6.78;4.28;;;15.70;99.90;;;;;;5075280;27;20182;-68
2022/04/26 12:42:59;;;;;;;6.43;4.25;;;15.60;99.90;;;;;;5115197;27;20054;-66
2022/04/26 12:45:25;;;;;;;7.75;4.63;;;15.70;99.90;;;;;;5108617;27;20055;-65
2022/04/26 12:50:54;;;;;;;8.68;3.92;;;15.80;99.90;;;;;;5084657;28;20391;-66
2022/04/26 12:53:26;;;;;;;7.13;4.22;;;15.60;99.90;;;;;;5111445;27;20347;-66
2022/04/26 12:55:53;;;;;;;7.57;4.30;;;15.60;99.90;;;;;;5138076;27;20035;-65
2022/04/26 12:58:37;;;;;;;9.05;4.93;;;15.80;99.90;;;;;;5127124;27;20052;-66
2022/04/26 13:01:05;;;;;;;5.80;4.13;;;16.10;99.90;;;;;;5118949;27;20051;-65
2022/04/26 13:03:31;;;;;;;6.25;3.83;;;16.30;99.90;;;;;;5111772;27;20051;-66
2022/04/26 13:06:07;;;;;;;7.38;3.63;;;16.30;99.90;;;;;;5121583;27;20054;-63
2022/04/26 13:08:34;;;;;;;6.38;4.20;;;16.30;99.90;;;;;;5129683;27;20042;-63
2022/04/26 13:11:00;;;;;;;7.20;3.92;;;16.50;99.90;;;;;;5121158;27;20044;-63
2022/04/26 13:13:28;;;;;;;8.07;4.55;;;16.50;99.90;;;;;;5093127;28;20551;-63
2022/04/26 13:15:54;;;;;;;7.25;4.20;;;16.30;99.90;;;;;;5119202;28;20243;-63
2022/04/26 13:18:20;;;;;;;7.80;4.32;;;16.10;99.90;;;;;;5090053;27;20044;-65
2022/04/26 13:20:46;;;;;;;12.27;4.43;;;15.70;99.90;;;;;;5119702;27;20036;-62
2022/04/26 13:23:13;;;;;;;8.10;4.32;;;15.70;99.90;;;;;;5108858;27;20073;-63
2022/04/26 13:25:39;;;;;;;7.40;4.13;;;15.80;99.90;;;;;;5128553;27;20055;-62
2022/04/26 13:28:06;;;;;;;5.78;3.80;;;15.70;99.90;;;;;;5125078;27;20085;-62
2022/04/26 13:30:32;;;;;;;6.90;4.15;;;15.50;99.90;;;;;;5127466;27;20129;-63
2022/04/26 13:32:58;;;;;;;7.28;3.83;;;15.90;99.90;;;;;;5140721;27;20070;-64
2022/04/26 13:35:25;;;;;;;15.55;5.38;;;16.00;99.90;;;;;;5100310;27;20090;-65
2022/04/26 13:38:01;;;;;;;8.90;4.00;;;16.00;99.90;;;;;;5130318;27;20055;-65
2022/04/26 13:40:27;;;;;;;15.73;4.97;;;16.50;99.70;;;;;;5131305;27;20047;-65
2022/04/26 13:42:53;;;;;;;6.40;3.47;;;17.00;99.90;;;;;;5141387;27;20556;-65
2022/04/26 13:45:20;;;;;;;4.60;3.13;;;17.70;98.20;;;;;;5120997;27;20107;-65
2022/04/26 13:47:45;;;;;;;6.25;3.40;;;18.70;98.70;;;;;;5128891;27;20051;-65
2022/04/26 13:50:12;;;;;;;7.78;3.33;;;19.80;94.40;;;;;;5104595;27;20044;-63
2022/04/26 13:52:41;;;;;;;6.38;3.17;;;20.80;80.80;;;;;;5124309;27;20055;-63
2022/04/26 13:55:07;;;;;;;5.82;3.40;;;21.10;72.90;;;;;;5128732;27;20035;-62
2022/04/26 13:57:33;;;;;;;6.25;3.03;;;21.50;72.50;;;;;;5134968;27;20195;-63
2022/04/26 14:00:00;;;;;;;5.25;3.42;;;21.80;69.40;;;;;;5122080;27;20058;-63
2022/04/26 14:02:26;;;;;;;4.72;3.38;;;22.00;66.50;;;;;;5138829;27;20050;-63
2022/04/26 14:04:52;;;;;;;6.05;3.17;;;22.60;66.00;;;;;;5119012;27;20047;-63
2022/04/26 14:07:18;;;;;;;6.32;3.58;;;23.40;65.00;;;;;;5110430;28;20040;-63
2022/04/26 14:09:44;;;;;;;5.15;3.50;;;24.00;61.70;;;;;;5116029;27;20184;-63
2022/04/26 14:12:11;;;;;;;5.53;3.60;;;24.70;58.50;;;;;;5137476;27;20047;-63
2022/04/26 14:22:52;;;;;;;3.97;3.20;;;24.90;51.30;;;;;;5123764;27;20186;-64
2022/04/26 14:25:18;;;;;;;3.92;2.90;;;25.30;51.60;;;;;;5128094;27;20044;-64
2022/04/26 14:27:45;;;;;;;5.25;3.33;;;25.50;48.10;;;;;;5132212;27;20122;-64
2022/04/26 14:30:12;;;;;;;5.00;3.38;;;25.20;45.50;;;;;;5128423;27;20055;-64
2022/04/26 14:32:38;;;;;;;7.32;3.58;;;23.90;45.80;;;;;;5137793;27;20050;-65
2022/04/26 14:35:05;;;;;;;5.55;3.28;;;23.40;46.50;;;;;;5129861;27;20051;-64
2022/04/26 14:37:33;;;;;;;6.45;3.65;;;22.50;47.40;;;;;;5115238;27;20108;-64
2022/04/26 14:39:58;;;;;;;6.50;3.60;;;22.30;50.30;;;;;;5128464;27;20055;-64
2022/04/26 14:42:24;;;;;;;4.50;3.53;;;22.20;49.80;;;;;;5128656;27;20035;-65
2022/04/26 14:44:51;;;;;;;4.75;3.85;;;22.70;49.40;;;;;;5120599;27;20047;-64
2022/04/26 14:47:16;;;;;;;7.35;3.70;;;21.20;50.20;;;;;;5115940;27;20039;-64
2022/04/26 14:49:42;;;;;;;7.45;3.75;;;22.20;50.90;;;;;;5112581;27;20433;-64
2022/04/26 14:52:08;;;;;;;7.43;3.88;;;23.40;51.70;;;;;;5137291;27;20075;-64
2022/04/26 14:54:34;;;;;;;4.38;3.33;;;24.50;49.70;;;;;;5114624;27;20543;-64
2022/04/26 14:57:00;;;;;;;8.88;4.40;;;23.70;46.50;;;;;;5121733;27;20548;-62
2022/04/26 14:59:26;;;;;;;5.35;3.55;;;24.50;48.60;;;;;;5108290;27;20056;-63
2022/04/26 15:01:53;;;;;;;6.05;4.10;;;25.00;49.00;;;;;;5117340;28;20399;-62
2022/04/26 15:04:23;;;;;;;4.60;3.50;;;26.20;48.20;;;;;;5117810;27;20036;-62
2022/04/26 15:06:49;;;;;;;8.50;3.47;;;25.10;46.40;;;;;;5126357;27;20050;-63
2022/04/26 15:17:31;;;;;;;5.60;3.83;;;25.60;44.50;;;;;;5091308;27;20176;-64
2022/04/26 15:19:56;;;;;;;5.72;3.35;;;24.80;44.90;;;;;;5148147;27;20046;-64
2022/04/26 15:22:23;;;;;;;8.45;4.03;;;25.00;46.90;;;;;;5122745;27;20120;-64
2022/04/26 15:24:50;;;;;;;6.63;3.60;;;25.10;47.80;;;;;;5126964;27;20079;-62
2022/04/26 15:27:18;;;;;;;6.00;4.07;;;26.00;46.20;;;;;;5136784;27;20596;-61
2022/04/26 15:29:44;;;;;;;5.72;3.70;;;25.10;45.00;;;;;;5156159;27;20038;-61
2022/04/26 15:32:11;;;;;;;7.18;3.60;;;25.60;48.80;;;;;;5129086;27;20047;-61
2022/04/26 15:34:37;;;;;;;5.03;3.22;;;25.30;46.90;;;;;;5138479;27;20047;-61
2022/04/26 15:37:04;;;;;;;6.85;3.53;;;24.70;48.60;;;;;;5101033;27;20363;-61
2022/04/26 15:39:29;;;;;;;6.43;4.15;;;25.30;49.30;;;;;;5138096;27;20046;-65
2022/04/26 15:41:56;;;;;;;6.30;3.60;;;24.50;45.30;;;;;;5135686;27;20050;-64
2022/04/26 15:44:23;;;;;;;4.57;3.45;;;23.50;48.80;;;;;;5140027;27;20042;-64
2022/04/26 15:46:52;;;;;;;4.63;3.70;;;23.50;48.30;;;;;;5120264;27;20062;-64
2022/04/26 15:49:21;;;;;;;4.75;3.38;;;23.10;48.80;;;;;;5122984;27;20067;-64
2022/04/26 15:51:50;;;;;;;6.30;3.60;;;23.60;48.60;;;;;;5133479;27;20116;-64
2022/04/26 15:54:16;;;;;;;5.13;3.53;;;23.00;49.30;;;;;;5115476;27;20047;-64
2022/04/26 15:56:45;;;;;;;8.30;3.60;;;22.00;47.80;;;;;;5108992;27;20061;-64
2022/04/26 15:59:12;;;;;;;11.18;3.80;;;21.80;48.90;;;;;;5119600;27;20450;-64
2022/04/26 16:01:42;;;;;;;6.95;3.45;;;22.40;49.60;;;;;;5113540;27;20052;-64
2022/04/26 16:04:12;;;;;;;5.97;3.10;;;22.40;49.30;;;;;;5115900;27;20073;-64
2022/04/26 16:06:39;;;;;;;5.05;3.22;;;21.60;50.70;;;;;;5127460;27;20058;-64
2022/04/26 16:22:48;;;;;;;5.78;3.72;;;19.30;53.20;;;;;;5130496;27;20043;-64
2022/04/26 16:25:15;;;;;;;7.40;3.83;;;18.60;56.00;;;;;;5156519;27;20039;-64
2022/04/26 16:27:41;;;;;;;5.85;3.50;;;17.90;56.60;;;;;;5128484;27;20550;-64
2022/04/26 16:30:09;;;;;;;7.05;3.30;;;17.70;58.50;;;;;;5141418;27;20079;-64
2022/04/26 16:32:35;;;;;;;7.05;4.25;;;17.20;59.30;;;;;;5124307;27;20052;-65
2022/04/26 16:35:00;;;;;;;5.97;3.67;;;17.30;61.20;;;;;;5148316;27;20538;-65
2022/04/26 16:37:26;;;;;;;4.50;3.28;;;17.30;64.70;;;;;;5106085;28;20063;-66
2022/04/26 16:39:52;;;;;;;4.65;3.75;;;17.20;66.80;;;;;;5114868;27;20082;-67
2022/04/26 16:42:18;;;;;;;5.72;3.33;;;17.20;73.80;;;;;;5113010;28;20059;-63
2022/04/26 16:44:44;;;;;;;5.50;3.40;;;17.00;69.60;;;;;;5119391;27;20088;-63
2022/04/26 16:47:10;;;;;;;6.50;3.58;;;17.10;76.60;;;;;;5095780;28;20117;-63
2022/04/26 16:49:37;;;;;;;5.38;3.30;;;17.00;76.90;;;;;;5115151;27;20050;-63
2022/04/26 16:52:04;;;;;;;6.15;3.13;;;16.90;83.10;;;;;;5100208;28;20047;-63
2022/04/26 16:54:30;;;;;;;7.43;3.97;;;16.80;87.80;;;;;;5109459;27;20055;-64
2022/04/26 16:56:56;;;;;;;5.63;3.50;;;16.70;92.30;;;;;;5109405;28;20051;-63
2022/04/26 16:59:23;;;;;;;5.15;3.65;;;16.70;93.30;;;;;;5130199;27;20054;-63
2022/04/26 17:01:49;;;;;;;6.07;3.40;;;16.60;94.60;;;;;;5122542;28;20055;-63
2022/04/26 17:04:15;;;;;;;7.03;3.63;;;16.70;97.10;;;;;;5129159;27;20039;-63
2022/04/26 17:06:41;;;;;;;8.10;3.53;;;17.10;96.10;;;;;;5125269;27;20125;-64
2022/04/26 17:09:07;;;;;;;5.78;3.45;;;17.40;95.10;;;;;;5125099;27;20078;-64
2022/04/26 17:11:42;;;;;;;8.15;3.55;;;17.50;93.60;;;;;;5137905;27;20085;-63
2022/04/26 17:14:14;;;;;;;7.10;3.65;;;17.40;92.10;;;;;;5098520;27;20066;-63
2022/04/26 17:16:40;;;;;;;4.60;3.60;;;17.20;93.50;;;;;;5144209;27;20046;-63